createdAt,value
2017-11-05T00:00:14.510Z,996.14
2017-11-05T00:00:54.920Z,996.08
2017-11-05T00:01:35.410Z,996.05
2017-11-05T00:02:15.688Z,996.09
2017-11-05T00:02:56.049Z,996.07
2017-11-05T00:03:36.484Z,996.07
2017-11-05T00:04:16.842Z,996.05
2017-11-05T00:04:57.581Z,996.09
2017-11-05T00:05:38.026Z,996.08
2017-11-05T00:06:18.459Z,996.09
2017-11-05T00:06:58.938Z,996.09
2017-11-05T00:07:39.282Z,996.03
2017-11-05T00:08:19.804Z,996.05
2017-11-05T00:09:00.220Z,996.05
2017-11-05T00:09:40.591Z,996.07
2017-11-05T00:10:21.086Z,996.08
2017-11-05T00:11:01.488Z,996.03
2017-11-05T00:11:41.886Z,996.06
2017-11-05T00:12:22.238Z,996.06
2017-11-05T00:13:02.860Z,996.09
2017-11-05T00:13:43.417Z,996.11
2017-11-05T00:14:23.831Z,996.12
2017-11-05T00:15:04.332Z,996.12
2017-11-05T00:15:44.845Z,996.06
2017-11-05T00:16:25.195Z,996.13
2017-11-05T00:17:05.686Z,996.12
2017-11-05T00:17:46.026Z,996.09
2017-11-05T00:18:26.441Z,996.09
2017-11-05T00:19:06.779Z,996.1
2017-11-05T00:19:47.210Z,996.05
2017-11-05T00:20:27.589Z,996.07
2017-11-05T00:21:08.011Z,996.05
2017-11-05T00:21:48.403Z,996.04
2017-11-05T00:22:29.756Z,996.03
2017-11-05T00:23:10.216Z,995.99
2017-11-05T00:23:50.611Z,995.98
2017-11-05T00:24:31.089Z,995.96
2017-11-05T00:25:11.523Z,995.99
2017-11-05T00:25:51.891Z,995.94
2017-11-05T00:26:32.251Z,995.98
2017-11-05T00:27:12.673Z,995.98
2017-11-05T00:27:53.037Z,995.94
2017-11-05T00:28:33.485Z,995.96
2017-11-05T00:29:13.959Z,995.95
2017-11-05T00:29:54.344Z,995.9
2017-11-05T00:30:34.796Z,995.95
2017-11-05T00:31:15.191Z,995.95
2017-11-05T00:31:56.183Z,995.92
2017-11-05T00:32:36.075Z,995.92
2017-11-05T00:33:16.414Z,995.92
2017-11-05T00:33:56.901Z,995.91
2017-11-05T00:34:37.222Z,995.94
2017-11-05T00:35:17.683Z,995.91
2017-11-05T00:35:58.089Z,995.93
2017-11-05T00:36:38.567Z,995.94
2017-11-05T00:37:18.909Z,995.97
2017-11-05T00:37:59.310Z,995.95
2017-11-05T00:38:39.785Z,995.96
2017-11-05T00:39:20.171Z,995.98
2017-11-05T00:40:00.585Z,995.96
2017-11-05T00:40:41.458Z,995.94
2017-11-05T00:41:21.853Z,995.93
2017-11-05T00:42:02.310Z,995.97
2017-11-05T00:42:42.617Z,995.97
2017-11-05T00:43:23.036Z,995.95
2017-11-05T00:44:03.453Z,995.99
2017-11-05T00:44:43.801Z,995.96
2017-11-05T00:45:24.230Z,995.94
2017-11-05T00:46:04.747Z,995.96
2017-11-05T00:46:45.150Z,995.95
2017-11-05T00:47:25.559Z,995.91
2017-11-05T00:48:05.946Z,995.93
2017-11-05T00:48:46.331Z,995.94
2017-11-05T00:49:26.688Z,995.92
2017-11-05T00:50:07.165Z,995.91
2017-11-05T00:50:47.558Z,995.91
2017-11-05T00:51:27.919Z,995.93
2017-11-05T00:52:08.418Z,995.9
2017-11-05T00:52:49.079Z,995.95
2017-11-05T00:53:29.426Z,995.95
2017-11-05T00:54:09.835Z,995.97
2017-11-05T00:54:50.315Z,995.94
2017-11-05T00:55:30.706Z,995.94
2017-11-05T00:56:11.065Z,995.95
2017-11-05T00:56:51.591Z,995.94
2017-11-05T00:57:31.931Z,995.97
2017-11-05T00:58:12.385Z,995.94
2017-11-05T00:58:52.797Z,995.94
2017-11-05T00:59:33.201Z,995.96
2017-11-05T01:00:13.864Z,995.96
2017-11-05T01:00:54.292Z,995.94
2017-11-05T01:01:34.631Z,995.94
2017-11-05T01:02:15.130Z,995.94
2017-11-05T01:02:55.597Z,995.96
2017-11-05T01:03:35.952Z,995.95
2017-11-05T01:04:16.313Z,995.94
2017-11-05T01:04:56.775Z,995.95
2017-11-05T01:05:37.247Z,995.94
2017-11-05T01:06:17.740Z,995.92
2017-11-05T01:06:58.117Z,995.93
2017-11-05T01:07:38.526Z,995.92
2017-11-05T01:08:18.896Z,995.93
2017-11-05T01:08:59.270Z,995.94
2017-11-05T01:09:39.826Z,995.95
2017-11-05T01:10:20.125Z,995.93
2017-11-05T01:11:00.573Z,995.94
2017-11-05T01:11:41.017Z,995.94
2017-11-05T01:12:21.472Z,995.92
2017-11-05T01:13:02.037Z,995.98
2017-11-05T01:13:42.683Z,995.95
2017-11-05T01:14:23.122Z,995.98
2017-11-05T01:15:03.579Z,996
2017-11-05T01:15:44.057Z,996.04
2017-11-05T01:16:24.605Z,996
2017-11-05T01:17:05.046Z,996.07
2017-11-05T01:17:45.508Z,996.04
2017-11-05T01:18:25.822Z,996.05
2017-11-05T01:19:08.904Z,996.09
2017-11-05T01:19:49.078Z,996.07
2017-11-05T01:20:29.416Z,996.06
2017-11-05T01:21:09.979Z,996.04
2017-11-05T01:21:50.295Z,996.07
2017-11-05T01:22:30.712Z,996.05
2017-11-05T01:23:11.169Z,996.05
2017-11-05T01:23:51.648Z,996.01
2017-11-05T01:24:31.993Z,996.04
2017-11-05T01:25:12.542Z,996.05
2017-11-05T01:25:52.902Z,996.09
2017-11-05T01:26:33.351Z,996.05
2017-11-05T01:27:13.842Z,996.08
2017-11-05T01:27:54.298Z,996.05
2017-11-05T01:28:34.701Z,996.04
2017-11-05T01:29:15.176Z,996.05
2017-11-05T01:29:55.531Z,996.02
2017-11-05T01:30:35.910Z,996.01
2017-11-05T01:31:16.405Z,996.02
2017-11-05T01:31:56.801Z,996.06
2017-11-05T01:32:37.168Z,996.03
2017-11-05T01:33:17.678Z,996.01
2017-11-05T01:33:58.190Z,995.98
2017-11-05T01:34:38.760Z,995.96
2017-11-05T01:35:19.137Z,995.95
2017-11-05T01:35:59.692Z,995.99
2017-11-05T01:36:40.083Z,995.99
2017-11-05T01:37:20.514Z,995.94
2017-11-05T01:38:00.912Z,995.94
2017-11-05T01:38:41.316Z,995.93
2017-11-05T01:39:21.760Z,995.91
2017-11-05T01:40:02.184Z,995.92
2017-11-05T01:40:42.687Z,995.92
2017-11-05T01:41:23.203Z,995.87
2017-11-05T01:42:03.678Z,995.88
2017-11-05T01:42:44.145Z,995.84
2017-11-05T01:43:24.583Z,995.85
2017-11-05T01:44:04.927Z,995.85
2017-11-05T01:44:45.428Z,995.85
2017-11-05T01:45:25.883Z,995.84
2017-11-05T01:46:06.361Z,995.85
2017-11-05T01:46:46.748Z,995.86
2017-11-05T01:47:27.128Z,995.78
2017-11-05T01:48:07.540Z,995.84
2017-11-05T01:48:47.939Z,995.82
2017-11-05T01:49:28.308Z,995.79
2017-11-05T01:50:08.834Z,995.76
2017-11-05T01:50:49.253Z,995.82
2017-11-05T01:51:29.671Z,995.79
2017-11-05T01:52:10.248Z,995.77
2017-11-05T01:52:50.692Z,995.8
2017-11-05T01:53:31.098Z,995.78
2017-11-05T01:54:11.585Z,995.82
2017-11-05T01:54:52.042Z,995.81
2017-11-05T01:55:32.418Z,995.84
2017-11-05T01:56:12.961Z,995.8
2017-11-05T01:56:53.284Z,995.77
2017-11-05T01:57:33.730Z,995.82
2017-11-05T01:58:14.153Z,995.82
2017-11-05T01:58:54.601Z,995.81
2017-11-05T01:59:35.059Z,995.8
2017-11-05T02:00:15.493Z,995.8
2017-11-05T02:00:55.880Z,995.82
2017-11-05T02:01:36.388Z,995.8
2017-11-05T02:02:16.824Z,995.84
2017-11-05T02:02:57.238Z,995.8
2017-11-05T02:03:37.704Z,995.86
2017-11-05T02:04:18.064Z,995.85
2017-11-05T02:04:58.580Z,995.87
2017-11-05T02:05:38.957Z,995.88
2017-11-05T02:06:19.478Z,995.83
2017-11-05T02:06:59.866Z,995.8
2017-11-05T02:07:40.357Z,995.84
2017-11-05T02:08:20.764Z,995.8
2017-11-05T02:09:01.123Z,995.79
2017-11-05T02:09:41.529Z,995.79
2017-11-05T02:10:21.994Z,995.83
2017-11-05T02:11:02.497Z,995.82
2017-11-05T02:11:42.939Z,995.81
2017-11-05T02:12:23.263Z,995.77
2017-11-05T02:13:03.686Z,995.77
2017-11-05T02:13:44.397Z,995.72
2017-11-05T02:14:24.798Z,995.73
2017-11-05T02:15:05.182Z,995.69
2017-11-05T02:15:45.591Z,995.71
2017-11-05T02:16:26.106Z,995.75
2017-11-05T02:17:06.550Z,995.72
2017-11-05T02:17:46.987Z,995.74
2017-11-05T02:18:27.335Z,995.77
2017-11-05T02:19:07.803Z,995.8
2017-11-05T02:19:48.141Z,995.75
2017-11-05T02:20:28.624Z,995.76
2017-11-05T02:21:09.065Z,995.74
2017-11-05T02:21:49.510Z,995.76
2017-11-05T02:22:29.930Z,995.77
2017-11-05T02:23:10.311Z,995.77
2017-11-05T02:23:50.751Z,995.75
2017-11-05T02:24:31.164Z,995.77
2017-11-05T02:25:11.532Z,995.75
2017-11-05T02:25:51.923Z,995.77
2017-11-05T02:26:32.389Z,995.72
2017-11-05T02:27:12.795Z,995.76
2017-11-05T02:27:53.179Z,995.75
2017-11-05T02:28:33.644Z,995.76
2017-11-05T02:29:14.016Z,995.76
2017-11-05T02:29:54.402Z,995.76
2017-11-05T02:30:34.851Z,995.79
2017-11-05T02:31:15.298Z,995.79
2017-11-05T02:31:55.803Z,995.76
2017-11-05T02:32:36.112Z,995.73
2017-11-05T02:33:16.509Z,995.76
2017-11-05T02:33:56.874Z,995.8
2017-11-05T02:34:37.412Z,995.75
2017-11-05T02:35:17.985Z,995.77
2017-11-05T02:35:58.442Z,995.78
2017-11-05T02:36:38.884Z,995.79
2017-11-05T02:37:19.384Z,995.79
2017-11-05T02:37:59.807Z,995.8
2017-11-05T02:38:40.147Z,995.79
2017-11-05T02:39:20.622Z,995.8
2017-11-05T02:40:01.003Z,995.78
2017-11-05T02:40:41.450Z,995.8
2017-11-05T02:41:22.018Z,995.8
2017-11-05T02:42:02.573Z,995.79
2017-11-05T02:42:43.039Z,995.77
2017-11-05T02:43:23.416Z,995.77
2017-11-05T02:44:03.844Z,995.75
2017-11-05T02:44:44.256Z,995.77
2017-11-05T02:45:24.751Z,995.74
2017-11-05T02:46:05.157Z,995.77
2017-11-05T02:46:45.589Z,995.77
2017-11-05T02:47:25.956Z,995.74
2017-11-05T02:48:06.367Z,995.74
2017-11-05T02:48:46.875Z,995.74
2017-11-05T02:49:27.192Z,995.74
2017-11-05T02:50:07.603Z,995.79
2017-11-05T02:50:48.073Z,995.79
2017-11-05T02:51:28.490Z,995.82
2017-11-05T02:52:08.875Z,995.8
2017-11-05T02:52:49.330Z,995.81
2017-11-05T02:53:29.705Z,995.81
2017-11-05T02:54:10.060Z,995.82
2017-11-05T02:54:50.480Z,995.82
2017-11-05T02:55:30.866Z,995.79
2017-11-05T02:56:11.377Z,995.78
2017-11-05T02:56:51.925Z,995.78
2017-11-05T02:57:32.439Z,995.76
2017-11-05T02:58:12.783Z,995.74
2017-11-05T02:58:53.180Z,995.75
2017-11-05T02:59:33.648Z,995.78
2017-11-05T03:00:14.006Z,995.78
2017-11-05T03:00:54.628Z,995.76
2017-11-05T03:01:35.025Z,995.77
2017-11-05T03:02:15.443Z,995.8
2017-11-05T03:02:55.898Z,995.8
2017-11-05T03:03:36.275Z,995.79
2017-11-05T03:04:16.708Z,995.77
2017-11-05T03:04:57.195Z,995.77
2017-11-05T03:05:37.529Z,995.76
2017-11-05T03:06:18.119Z,995.76
2017-11-05T03:06:58.621Z,995.75
2017-11-05T03:07:39.055Z,995.76
2017-11-05T03:08:19.645Z,995.75
2017-11-05T03:08:59.981Z,995.76
2017-11-05T03:09:40.476Z,995.7
2017-11-05T03:10:20.946Z,995.71
2017-11-05T03:11:01.428Z,995.7
2017-11-05T03:11:41.859Z,995.73
2017-11-05T03:12:22.289Z,995.71
2017-11-05T03:13:02.768Z,995.7
2017-11-05T03:13:43.115Z,995.7
2017-11-05T03:14:23.531Z,995.68
2017-11-05T03:15:03.900Z,995.65
2017-11-05T03:15:44.332Z,995.68
2017-11-05T03:16:24.817Z,995.65
2017-11-05T03:17:05.215Z,995.65
2017-11-05T03:17:45.580Z,995.63
2017-11-05T03:18:25.967Z,995.62
2017-11-05T03:19:06.355Z,995.6
2017-11-05T03:19:46.788Z,995.67
2017-11-05T03:20:27.221Z,995.54
2017-11-05T03:21:07.641Z,995.62
2017-11-05T03:21:48.053Z,995.58
2017-11-05T03:22:28.494Z,995.6
2017-11-05T03:23:08.813Z,995.59
2017-11-05T03:23:49.219Z,995.62
2017-11-05T03:24:29.779Z,995.6
2017-11-05T03:25:10.114Z,995.61
2017-11-05T03:25:50.481Z,995.6
2017-11-05T03:26:30.920Z,995.66
2017-11-05T03:27:11.416Z,995.63
2017-11-05T03:27:51.775Z,995.63
2017-11-05T03:28:32.242Z,995.69
2017-11-05T03:29:12.616Z,995.65
2017-11-05T03:29:53.030Z,995.64
2017-11-05T03:30:33.489Z,995.65
2017-11-05T03:31:13.904Z,995.69
2017-11-05T03:31:54.280Z,995.67
2017-11-05T03:32:34.763Z,995.66
2017-11-05T03:33:15.172Z,995.69
2017-11-05T03:33:55.790Z,995.68
2017-11-05T03:34:36.135Z,995.7
2017-11-05T03:35:16.632Z,995.74
2017-11-05T03:35:56.965Z,995.7
2017-11-05T03:36:37.508Z,995.71
2017-11-05T03:37:17.958Z,995.7
2017-11-05T03:37:58.388Z,995.71
2017-11-05T03:38:38.756Z,995.69
2017-11-05T03:39:19.185Z,995.72
2017-11-05T03:39:59.619Z,995.73
2017-11-05T03:40:40.076Z,995.72
2017-11-05T03:41:20.380Z,995.71
2017-11-05T03:42:00.821Z,995.7
2017-11-05T03:42:41.221Z,995.71
2017-11-05T03:43:21.660Z,995.68
2017-11-05T03:44:02.131Z,995.74
2017-11-05T03:44:42.459Z,995.75
2017-11-05T03:45:23.049Z,995.74
2017-11-05T03:46:03.514Z,995.71
2017-11-05T03:46:44.113Z,995.77
2017-11-05T03:47:24.493Z,995.74
2017-11-05T03:48:05.025Z,995.73
2017-11-05T03:48:45.341Z,995.77
2017-11-05T03:49:25.803Z,995.79
2017-11-05T03:50:06.167Z,995.76
2017-11-05T03:50:46.625Z,995.75
2017-11-05T03:51:27.052Z,995.74
2017-11-05T03:52:07.503Z,995.76
2017-11-05T03:52:47.881Z,995.74
2017-11-05T03:53:28.413Z,995.69
2017-11-05T03:54:08.794Z,995.69
2017-11-05T03:54:49.138Z,995.66
2017-11-05T03:55:29.719Z,995.67
2017-11-05T03:56:10.072Z,995.67
2017-11-05T03:56:50.474Z,995.67
2017-11-05T03:57:30.899Z,995.72
2017-11-05T03:58:11.357Z,995.68
2017-11-05T03:58:51.757Z,995.72
2017-11-05T03:59:32.349Z,995.71
2017-11-05T04:00:12.694Z,995.73
2017-11-05T04:00:53.134Z,995.77
2017-11-05T04:01:33.562Z,995.77
2017-11-05T04:02:14.051Z,995.76
2017-11-05T04:02:54.345Z,995.76
2017-11-05T04:40:40.516Z,995.96
2017-11-05T04:41:28.813Z,996.01
2017-11-05T04:42:08.988Z,995.98
2017-11-05T04:42:49.651Z,996.05
2017-11-05T04:43:30.233Z,996.06
2017-11-05T04:44:10.622Z,996.04
2017-11-05T04:44:51.098Z,996.07
2017-11-05T04:45:32.251Z,996.07
2017-11-05T04:46:12.697Z,996.09
2017-11-05T04:46:53.099Z,996.09
2017-11-05T04:47:33.492Z,996.09
2017-11-05T04:48:14.530Z,996.11
2017-11-05T04:48:54.612Z,996.16
2017-11-05T04:49:35.125Z,996.14
2017-11-05T04:50:15.536Z,996.12
2017-11-05T04:50:56.258Z,996.08
2017-11-05T04:51:36.760Z,996.04
2017-11-05T04:52:17.241Z,996.03
2017-11-05T04:52:58.333Z,996.03
2017-11-05T04:53:38.717Z,996.06
2017-11-05T04:54:19.104Z,996.07
2017-11-05T04:54:59.571Z,996.04
2017-11-05T04:55:40.333Z,996.12
2017-11-05T04:56:21.770Z,996.13
2017-11-05T04:57:02.088Z,996.13
2017-11-05T04:57:42.821Z,996.13
2017-11-05T04:58:24.228Z,996.12
2017-11-05T04:59:05.063Z,996.19
2017-11-05T04:59:45.458Z,996.13
2017-11-05T05:00:25.906Z,996.19
2017-11-05T05:01:06.586Z,996.2
2017-11-05T05:01:46.981Z,996.17
2017-11-05T05:02:27.392Z,996.19
2017-11-05T05:03:07.824Z,996.19
2017-11-05T05:03:48.169Z,996.15
2017-11-05T05:04:28.630Z,996.21
2017-11-05T05:05:09.005Z,996.23
2017-11-05T05:05:49.365Z,996.21
2017-11-05T05:06:29.859Z,996.22
2017-11-05T05:07:10.341Z,996.28
2017-11-05T05:07:50.934Z,996.29
2017-11-05T05:08:32.066Z,996.19
2017-11-05T05:09:12.540Z,996.32
2017-11-05T05:09:53.191Z,996.31
2017-11-05T05:10:33.548Z,996.28
2017-11-05T05:11:14.171Z,996.33
2017-11-05T05:11:55.247Z,996.27
2017-11-05T05:12:35.681Z,996.33
2017-11-05T05:13:16.385Z,996.33
2017-11-05T05:13:56.733Z,996.39
2017-11-05T05:14:37.191Z,996.41
2017-11-05T05:15:17.659Z,996.38
2017-11-05T05:15:58.064Z,996.4
2017-11-05T05:16:38.370Z,996.2
2017-11-05T05:17:18.860Z,996.35
2017-11-05T05:18:00.187Z,996.34
2017-11-05T05:18:40.889Z,996.34
2017-11-05T05:19:22.153Z,996.34
2017-11-05T05:20:02.603Z,996.28
2017-11-05T05:20:43.729Z,996.32
2017-11-05T05:21:24.392Z,996.38
2017-11-05T05:22:04.912Z,996.32
2017-11-05T05:22:45.246Z,996.31
2017-11-05T05:23:25.700Z,996.38
2017-11-05T05:24:06.188Z,996.32
2017-11-05T05:24:46.763Z,996.38
2017-11-05T05:25:27.157Z,996.37
2017-11-05T05:26:07.899Z,996.3
2017-11-05T05:26:48.151Z,996.36
2017-11-05T05:27:28.590Z,996.35
2017-11-05T05:28:09.125Z,996.39
2017-11-05T05:28:50.118Z,996.42
2017-11-05T05:29:30.632Z,996.41
2017-11-05T05:30:11.012Z,996.35
2017-11-05T05:30:51.381Z,996.41
2017-11-05T05:31:31.816Z,996.35
2017-11-05T05:32:12.206Z,996.4
2017-11-05T05:32:52.944Z,996.44
2017-11-05T05:33:33.009Z,996.45
2017-11-05T05:34:14.517Z,996.42
2017-11-05T05:34:55.131Z,996.4
2017-11-05T05:35:36.199Z,996.48
2017-11-05T05:36:16.725Z,996.37
2017-11-05T05:36:57.699Z,996.44
2017-11-05T05:37:39.107Z,996.36
2017-11-05T05:38:19.655Z,996.49
2017-11-05T05:39:00.018Z,996.43
2017-11-05T05:39:40.442Z,996.53
2017-11-05T05:40:20.826Z,996.56
2017-11-05T05:41:01.336Z,996.55
2017-11-05T05:41:41.707Z,996.56
2017-11-05T05:42:22.214Z,996.59
2017-11-05T05:43:02.608Z,996.59
2017-11-05T05:43:43.131Z,996.62
2017-11-05T05:44:23.607Z,996.62
2017-11-05T05:45:04.099Z,996.64
2017-11-05T05:45:44.666Z,996.64
2017-11-05T05:46:24.934Z,996.71
2017-11-05T05:47:05.450Z,996.73
2017-11-05T05:47:46.253Z,996.67
2017-11-05T05:48:26.864Z,996.75
2017-11-05T05:49:07.251Z,996.77
2017-11-05T05:49:47.582Z,996.8
2017-11-05T05:50:28.087Z,996.87
2017-11-05T05:51:08.514Z,996.89
2017-11-05T05:51:48.976Z,996.79
2017-11-05T05:52:29.603Z,996.91
2017-11-05T05:53:10.053Z,996.92
2017-11-05T05:53:50.458Z,996.91
2017-11-05T05:54:30.944Z,996.94
2017-11-05T05:55:11.323Z,996.91
2017-11-05T05:55:51.799Z,996.9
2017-11-05T05:56:32.226Z,996.93
2017-11-05T05:57:13.382Z,996.96
2017-11-05T05:57:52.993Z,996.95
2017-11-05T05:58:33.886Z,996.97
2017-11-05T05:59:14.099Z,996.99
2017-11-05T05:59:54.444Z,996.97
2017-11-05T06:00:35.427Z,996.97
2017-11-05T06:01:15.938Z,996.91
2017-11-05T06:01:56.616Z,996.97
2017-11-05T06:02:36.962Z,997.02
2017-11-05T06:03:17.404Z,997.05
2017-11-05T06:03:57.792Z,997.11
2017-11-05T06:04:38.622Z,997.1
2017-11-05T06:05:19.180Z,997.11
2017-11-05T06:05:59.598Z,997.16
2017-11-05T06:06:40.109Z,997.2
2017-11-05T06:07:20.421Z,997.2
2017-11-05T06:08:00.983Z,997.21
2017-11-05T06:08:41.534Z,997.27
2017-11-05T06:09:21.852Z,997.26
2017-11-05T06:10:02.288Z,997.26
2017-11-05T06:10:42.843Z,997.28
2017-11-05T06:11:23.585Z,997.3
2017-11-05T06:12:03.929Z,997.33
2017-11-05T06:12:45.104Z,997.29
2017-11-05T06:13:25.653Z,997.33
2017-11-05T06:14:06.199Z,997.31
2017-11-05T06:14:46.687Z,997.31
2017-11-05T06:15:27.044Z,997.31
2017-11-05T06:16:07.449Z,997.35
2017-11-05T06:16:47.927Z,997.35
2017-11-05T06:17:28.391Z,997.34
2017-11-05T06:18:08.725Z,997.34
2017-11-05T06:18:49.160Z,997.37
2017-11-05T06:19:29.511Z,997.33
2017-11-05T06:20:09.956Z,997.33
2017-11-05T06:20:50.368Z,997.25
2017-11-05T06:21:30.899Z,997.26
2017-11-05T06:22:11.264Z,997.33
2017-11-05T06:22:51.723Z,997.31
2017-11-05T06:23:32.325Z,997.29
2017-11-05T06:24:12.779Z,997.34
2017-11-05T06:24:53.392Z,997.38
2017-11-05T06:25:33.881Z,997.39
2017-11-05T06:26:14.279Z,997.31
2017-11-05T06:26:55.100Z,997.36
2017-11-05T06:27:35.486Z,997.41
2017-11-05T06:28:15.867Z,997.41
2017-11-05T06:28:56.389Z,997.41
2017-11-05T06:29:36.813Z,997.42
2017-11-05T06:30:17.300Z,997.46
2017-11-05T06:30:57.716Z,997.41
2017-11-05T06:31:38.383Z,997.43
2017-11-05T06:32:18.793Z,997.43
2017-11-05T06:32:59.289Z,997.5
2017-11-05T06:33:40.025Z,997.45
2017-11-05T06:34:20.405Z,997.46
2017-11-05T06:35:00.821Z,997.44
2017-11-05T06:35:41.259Z,997.47
2017-11-05T06:36:21.698Z,997.45
2017-11-05T06:37:02.068Z,997.44
2017-11-05T06:37:42.547Z,997.4
2017-11-05T06:38:23.036Z,997.48
2017-11-05T06:39:03.401Z,997.51
2017-11-05T06:39:43.780Z,997.5
2017-11-05T06:40:24.348Z,997.53
2017-11-05T06:41:04.882Z,997.56
2017-11-05T06:41:45.221Z,997.56
2017-11-05T06:42:25.544Z,997.58
2017-11-05T06:43:05.991Z,997.57
2017-11-05T06:43:46.494Z,997.57
2017-11-05T06:44:26.910Z,997.57
2017-11-05T06:45:07.322Z,997.57
2017-11-05T06:45:47.713Z,997.63
2017-11-05T06:46:28.097Z,997.62
2017-11-05T06:47:08.498Z,997.61
2017-11-05T06:47:48.842Z,997.6
2017-11-05T06:48:29.287Z,997.64
2017-11-05T06:49:09.630Z,997.63
2017-11-05T06:49:50.090Z,997.73
2017-11-05T06:50:30.548Z,997.7
2017-11-05T06:51:11.082Z,997.74
2017-11-05T06:51:51.493Z,997.71
2017-11-05T06:52:31.935Z,997.68
2017-11-05T06:53:12.341Z,997.71
2017-11-05T06:53:53.077Z,997.73
2017-11-05T06:54:33.606Z,997.71
2017-11-05T06:55:14.082Z,997.76
2017-11-05T06:55:54.535Z,997.74
2017-11-05T06:56:34.936Z,997.81
2017-11-05T06:57:15.341Z,997.8
2017-11-05T06:57:56.664Z,997.84
2017-11-05T06:58:37.146Z,997.85
2017-11-05T06:59:17.899Z,997.85
2017-11-05T06:59:58.255Z,997.88
2017-11-05T07:00:38.949Z,997.9
2017-11-05T07:01:20.172Z,997.89
2017-11-05T07:02:00.835Z,997.95
2017-11-05T07:02:41.148Z,997.98
2017-11-05T07:03:21.607Z,998.01
2017-11-05T07:04:01.963Z,998.02
2017-11-05T07:04:42.306Z,998
2017-11-05T07:05:22.783Z,998.06
2017-11-05T07:06:03.193Z,998.03
2017-11-05T07:06:43.870Z,998.08
2017-11-05T07:07:23.990Z,998.09
2017-11-05T07:08:04.398Z,998.11
2017-11-05T07:08:44.866Z,998.12
2017-11-05T07:09:25.299Z,998.12
2017-11-05T07:10:05.770Z,998.15
2017-11-05T07:10:46.155Z,998.16
2017-11-05T07:11:26.746Z,998.17
2017-11-05T07:12:07.011Z,998.2
2017-11-05T07:12:47.408Z,998.2
2017-11-05T07:13:27.813Z,998.21
2017-11-05T07:14:08.628Z,998.27
2017-11-05T07:14:49.288Z,998.25
2017-11-05T07:15:29.761Z,998.27
2017-11-05T07:16:10.744Z,998.31
2017-11-05T07:16:51.157Z,998.32
2017-11-05T07:17:31.740Z,998.31
2017-11-05T07:18:12.109Z,998.37
2017-11-05T07:18:52.589Z,998.35
2017-11-05T07:19:33.256Z,998.33
2017-11-05T07:20:13.721Z,998.3
2017-11-05T07:20:54.621Z,998.31
2017-11-05T07:21:35.019Z,998.35
2017-11-05T07:22:15.485Z,998.31
2017-11-05T07:22:55.957Z,998.33
2017-11-05T07:23:36.912Z,998.37
2017-11-05T07:24:17.306Z,998.35
2017-11-05T07:24:57.827Z,998.37
2017-11-05T07:25:38.201Z,998.34
2017-11-05T07:26:18.654Z,998.37
2017-11-05T07:26:59.169Z,998.35
2017-11-05T07:27:39.860Z,998.39
2017-11-05T07:28:20.061Z,998.37
2017-11-05T07:29:00.488Z,998.37
2017-11-05T07:29:40.985Z,998.36
2017-11-05T07:30:21.454Z,998.35
2017-11-05T07:31:02.020Z,998.39
2017-11-05T07:31:42.424Z,998.42
2017-11-05T07:32:22.823Z,998.42
2017-11-05T07:33:03.183Z,998.42
2017-11-05T07:33:43.709Z,998.42
2017-11-05T07:34:24.235Z,998.42
2017-11-05T07:35:04.596Z,998.41
2017-11-05T07:35:44.981Z,998.42
2017-11-05T07:36:25.777Z,998.41
2017-11-05T07:37:05.877Z,998.39
2017-11-05T07:37:46.335Z,998.43
2017-11-05T07:38:26.831Z,998.45
2017-11-05T07:39:07.271Z,998.44
2017-11-05T07:39:48.815Z,998.43
2017-11-05T07:40:29.161Z,998.45
2017-11-05T07:41:09.589Z,998.45
2017-11-05T07:41:50.001Z,998.43
2017-11-05T07:42:30.503Z,998.43
2017-11-05T07:43:11.115Z,998.43
2017-11-05T07:43:51.494Z,998.45
2017-11-05T07:44:32.494Z,998.44
2017-11-05T07:45:13.015Z,998.37
2017-11-05T07:45:53.395Z,998.42
2017-11-05T07:46:33.941Z,998.36
2017-11-05T07:47:15.619Z,998.33
2017-11-05T07:47:55.991Z,998.33
2017-11-05T07:48:36.546Z,998.35
2017-11-05T07:49:16.949Z,998.41
2017-11-05T07:49:57.335Z,998.44
2017-11-05T07:50:37.881Z,998.39
2017-11-05T07:51:18.325Z,998.43
2017-11-05T07:51:58.714Z,998.39
2017-11-05T07:52:39.223Z,998.41
2017-11-05T07:53:20.004Z,998.49
2017-11-05T07:54:00.832Z,998.49
2017-11-05T07:54:41.720Z,998.56
2017-11-05T07:55:22.055Z,998.63
2017-11-05T07:56:02.498Z,998.59
2017-11-05T07:56:43.027Z,998.61
2017-11-05T07:57:23.379Z,998.62
2017-11-05T07:58:03.920Z,998.66
2017-11-05T07:58:44.213Z,998.63
2017-11-05T07:59:24.731Z,998.54
2017-11-05T08:00:05.168Z,998.68
2017-11-05T08:00:45.617Z,998.69
2017-11-05T08:01:25.996Z,998.73
2017-11-05T08:02:08.178Z,998.77
2017-11-05T08:02:47.950Z,998.82
2017-11-05T08:03:29.680Z,998.82
2017-11-05T08:04:10.221Z,998.89
2017-11-05T08:04:50.751Z,998.88
2017-11-05T08:05:30.941Z,998.91
2017-11-05T08:06:11.370Z,998.86
2017-11-05T08:06:51.922Z,998.9
2017-11-05T08:07:32.202Z,998.89
2017-11-05T08:08:12.733Z,998.92
2017-11-05T08:08:53.551Z,998.94
2017-11-05T08:09:34.432Z,998.94
2017-11-05T08:10:14.404Z,998.92
2017-11-05T08:10:54.818Z,998.94
2017-11-05T08:14:26.136Z,998.92
2017-11-05T08:15:18.917Z,998.94
2017-11-05T08:16:12.327Z,998.91
2017-11-05T08:17:04.480Z,998.95
2017-11-05T08:17:56.530Z,998.95
2017-11-05T08:18:51.285Z,998.85
2017-11-05T08:19:44.404Z,998.8
2017-11-05T08:20:37.102Z,998.84
2017-11-05T08:21:31.004Z,998.89
2017-11-05T08:22:23.847Z,998.9
2017-11-05T08:23:16.312Z,998.94
2017-11-05T08:24:10.972Z,998.87
2017-11-05T08:25:03.939Z,998.82
2017-11-05T08:25:58.641Z,998.77
2017-11-05T08:26:50.648Z,998.73
2017-11-05T08:27:42.578Z,998.74
2017-11-05T08:28:35.166Z,998.73
2017-11-05T08:29:27.497Z,998.73
2017-11-05T08:30:19.684Z,998.82
2017-11-05T08:31:11.790Z,998.84
2017-11-05T08:32:05.034Z,998.86
2017-11-05T08:32:57.159Z,998.9
2017-11-05T08:33:50.221Z,998.95
2017-11-05T08:34:43.582Z,998.93
2017-11-05T08:35:37.314Z,998.94
2017-11-05T08:36:29.810Z,998.96
2017-11-05T08:37:22.498Z,998.93
2017-11-05T08:38:15.031Z,998.93
2017-11-05T08:39:07.793Z,998.92
2017-11-05T08:40:00.554Z,998.91
2017-11-05T08:40:54.009Z,998.93
2017-11-05T08:41:46.787Z,998.89
2017-11-05T08:42:40.276Z,998.96
2017-11-05T08:43:32.780Z,998.93
2017-11-05T08:44:26.005Z,998.9
2017-11-05T08:45:23.190Z,998.93
2017-11-05T08:46:20.563Z,998.99
2017-11-05T08:47:16.256Z,998.99
2017-11-05T08:48:08.525Z,999.01
2017-11-05T08:49:01.198Z,999.06
2017-11-05T08:49:53.449Z,999.08
2017-11-05T08:50:45.755Z,999.04
2017-11-05T08:51:38.678Z,999.12
2017-11-05T08:52:31.194Z,999.12
2017-11-05T08:53:25.148Z,999.13
2017-11-05T08:54:17.713Z,999.14
2017-11-05T08:55:09.606Z,999.11
2017-11-05T08:56:02.603Z,999.15
2017-11-05T08:56:54.696Z,999.18
2017-11-05T08:57:47.158Z,999.12
2017-11-05T08:58:39.448Z,999.1
2017-11-05T08:59:31.939Z,999.14
2017-11-05T09:00:24.019Z,999.12
2017-11-05T09:01:16.775Z,999.14
2017-11-05T09:02:09.170Z,999.13
2017-11-05T09:03:01.612Z,999.21
2017-11-05T09:03:53.544Z,999.25
2017-11-05T09:04:46.518Z,999.24
2017-11-05T09:05:40.239Z,999.26
2017-11-05T09:08:06.114Z,999.3
2017-11-05T09:08:58.494Z,999.33
2017-11-05T09:09:51.794Z,999.37
2017-11-05T09:10:44.267Z,999.39
2017-11-05T09:11:36.831Z,999.45
2017-11-05T09:12:29.914Z,999.43
2017-11-05T09:13:21.975Z,999.47
2017-11-05T09:14:15.435Z,999.49
2017-11-05T09:15:07.575Z,999.5
2017-11-05T09:16:00.491Z,999.47
2017-11-05T09:16:54.268Z,999.57
2017-11-05T09:17:46.655Z,999.58
2017-11-05T09:18:38.989Z,999.59
2017-11-05T09:19:33.606Z,999.6
2017-11-05T09:20:26.200Z,999.66
2017-11-05T09:21:19.343Z,999.59
2017-11-05T09:22:11.354Z,999.66
2017-11-05T09:23:04.182Z,999.66
2017-11-05T09:23:56.543Z,999.7